createdAt,value
2023-03-18T00:00:50.581Z,13.20
2023-03-18T00:03:18.248Z,13.30
2023-03-18T00:05:45.665Z,13.30
2023-03-18T00:08:12.651Z,13.30
2023-03-18T00:10:39.762Z,13.30
2023-03-18T00:13:06.664Z,13.30
2023-03-18T00:15:33.465Z,13.30
2023-03-18T00:18:00.318Z,13.20
2023-03-18T00:20:39.032Z,13.00
2023-03-18T00:23:08.591Z,13.10
2023-03-18T00:25:36.764Z,13.20
2023-03-18T00:28:06.579Z,13.30
2023-03-18T00:30:34.801Z,13.30
2023-03-18T00:33:01.821Z,13.30
2023-03-18T00:35:30.644Z,13.20
2023-03-18T00:37:58.748Z,13.20
2023-03-18T00:40:43.015Z,13.30
2023-03-18T00:43:12.645Z,13.30
2023-03-18T00:45:40.947Z,13.20
2023-03-18T00:48:08.997Z,13.20
2023-03-18T00:50:37.511Z,13.10
2023-03-18T00:53:04.320Z,13.20
2023-03-18T00:55:31.128Z,13.20
2023-03-18T00:57:58.050Z,13.10
2023-03-18T01:00:26.341Z,13.10
2023-03-18T01:02:53.555Z,13.00
2023-03-18T01:05:20.826Z,12.80
2023-03-18T01:07:48.098Z,12.70
2023-03-18T01:10:15.989Z,12.70
2023-03-18T01:12:46.635Z,12.70
2023-03-18T01:15:16.883Z,12.60
2023-03-18T01:17:44.505Z,12.60
2023-03-18T01:20:13.817Z,12.60
2023-03-18T01:22:42.334Z,12.50
2023-03-18T01:25:13.642Z,12.60
2023-03-18T01:27:40.716Z,12.60
2023-03-18T01:30:09.262Z,12.60
2023-03-18T01:32:36.702Z,12.70
2023-03-18T01:35:04.522Z,12.70
2023-03-18T01:37:31.563Z,12.60
2023-03-18T01:39:58.487Z,12.70
2023-03-18T01:42:25.235Z,12.80
2023-03-18T01:45:10.970Z,12.80
2023-03-18T01:47:37.720Z,12.70
2023-03-18T01:50:04.832Z,12.70
2023-03-18T01:52:32.513Z,12.70
2023-03-18T01:55:02.987Z,12.70
2023-03-18T01:57:32.749Z,12.60
2023-03-18T02:00:00.738Z,12.60
2023-03-18T02:02:28.643Z,12.60
2023-03-18T02:04:59.206Z,12.60
2023-03-18T02:07:29.736Z,12.60
2023-03-18T02:09:59.907Z,12.60
2023-03-18T02:12:31.877Z,12.60
2023-03-18T02:15:00.276Z,12.60
2023-03-18T02:17:31.662Z,12.60
2023-03-18T02:20:20.968Z,12.60
2023-03-18T02:23:02.546Z,12.60
2023-03-18T02:25:48.953Z,12.50
2023-03-18T02:28:24.693Z,12.50
2023-03-18T02:30:58.384Z,12.50
2023-03-18T02:33:31.044Z,12.50
2023-03-18T02:36:03.262Z,12.50
2023-03-18T02:38:30.418Z,12.50
2023-03-18T02:40:57.224Z,12.40
2023-03-18T02:43:33.225Z,12.30
2023-03-18T02:46:07.081Z,12.20
2023-03-18T02:48:42.310Z,12.20
2023-03-18T02:51:10.442Z,12.20
2023-03-18T02:53:38.294Z,12.20
2023-03-18T02:56:05.844Z,12.20
2023-03-18T02:58:33.171Z,12.30
2023-03-18T03:01:00.332Z,12.10
2023-03-18T03:03:29.171Z,12.00
2023-03-18T03:05:56.496Z,12.00
2023-03-18T03:08:24.852Z,12.00
2023-03-18T03:10:52.539Z,12.00
2023-03-18T03:13:21.188Z,12.00
2023-03-18T03:15:48.614Z,12.00
2023-03-18T03:18:16.550Z,12.00
2023-03-18T03:20:43.905Z,12.10
2023-03-18T03:23:13.773Z,12.10
2023-03-18T03:25:40.628Z,12.00
2023-03-18T03:28:08.521Z,11.90
2023-03-18T03:30:36.735Z,11.90
2023-03-18T03:33:03.832Z,11.80
2023-03-18T03:35:31.318Z,11.80
2023-03-18T03:37:58.263Z,11.80
2023-03-18T03:40:26.161Z,11.90
2023-03-18T03:42:52.990Z,11.90
2023-03-18T03:45:20.242Z,11.90
2023-03-18T03:47:47.789Z,11.70
2023-03-18T03:50:16.073Z,11.70
2023-03-18T03:52:43.596Z,11.70
2023-03-18T03:55:14.153Z,11.70
2023-03-18T03:57:41.074Z,11.70
2023-03-18T04:00:13.607Z,11.70
2023-03-18T04:02:44.771Z,11.80
2023-03-18T04:05:16.963Z,11.90
2023-03-18T04:07:45.307Z,11.60
2023-03-18T04:10:15.099Z,11.70
2023-03-18T04:12:42.061Z,11.60
2023-03-18T04:15:09.819Z,11.50
2023-03-18T04:17:36.821Z,11.60
2023-03-18T04:20:05.457Z,11.60
2023-03-18T04:22:33.182Z,11.60
2023-03-18T04:25:00.366Z,11.60
2023-03-18T04:27:28.217Z,11.50
2023-03-18T04:29:55.143Z,11.50
2023-03-18T04:32:22.037Z,11.50
2023-03-18T04:34:48.945Z,11.60
2023-03-18T04:37:19.843Z,11.60
2023-03-18T04:39:48.073Z,11.60
2023-03-18T04:42:15.307Z,11.60
2023-03-18T04:44:42.169Z,11.70
2023-03-18T04:47:09.089Z,11.70
2023-03-18T04:49:37.760Z,11.50
2023-03-18T04:52:05.284Z,11.50
2023-03-18T04:54:32.054Z,11.40
2023-03-18T04:56:59.518Z,11.50
2023-03-18T04:59:26.390Z,11.40
2023-03-18T05:01:53.640Z,11.40
2023-03-18T05:04:20.531Z,11.40
2023-03-18T05:06:47.446Z,11.30
2023-03-18T05:09:14.290Z,11.30
2023-03-18T05:11:41.120Z,11.40
2023-03-18T05:14:07.990Z,11.30
2023-03-18T05:16:35.502Z,11.30
2023-03-18T05:19:02.554Z,11.30
2023-03-18T05:21:30.587Z,11.30
2023-03-18T05:23:57.449Z,11.30
2023-03-18T05:26:24.818Z,11.30
2023-03-18T05:28:52.598Z,11.30
2023-03-18T05:31:19.972Z,11.30
2023-03-18T05:33:47.912Z,11.30
2023-03-18T05:36:14.833Z,11.30
2023-03-18T05:38:41.684Z,11.30
2023-03-18T05:41:08.458Z,11.20
2023-03-18T05:43:35.312Z,11.30
2023-03-18T05:46:02.087Z,11.30
2023-03-18T05:48:28.862Z,11.30
2023-03-18T05:50:55.722Z,11.30
2023-03-18T05:53:22.604Z,11.30
2023-03-18T05:55:49.468Z,11.30
2023-03-18T05:58:16.345Z,11.30
2023-03-18T06:00:43.461Z,11.30
2023-03-18T06:03:10.395Z,11.20
2023-03-18T06:05:37.269Z,11.20
2023-03-18T06:08:04.438Z,11.20
2023-03-18T06:10:31.457Z,11.20
2023-03-18T06:12:58.303Z,11.20
2023-03-18T06:15:25.747Z,11.10
2023-03-18T06:17:52.903Z,11.20
2023-03-18T06:20:20.318Z,11.20
2023-03-18T06:22:49.708Z,11.10
2023-03-18T06:25:19.314Z,11.20
2023-03-18T06:27:47.884Z,11.20
2023-03-18T06:30:16.174Z,11.30
2023-03-18T06:32:43.292Z,11.30
2023-03-18T06:35:11.754Z,11.20
2023-03-18T06:37:40.100Z,11.20
2023-03-18T06:40:08.468Z,11.20
2023-03-18T06:42:35.676Z,11.20
2023-03-18T06:45:02.949Z,11.20
2023-03-18T06:47:29.903Z,11.40
2023-03-18T06:49:56.962Z,11.30
2023-03-18T06:52:24.131Z,11.40
2023-03-18T06:54:51.917Z,11.40
2023-03-18T06:57:19.023Z,11.40
2023-03-18T06:59:46.886Z,11.40
2023-03-18T07:02:15.377Z,11.40
2023-03-18T07:04:42.485Z,11.50
2023-03-18T07:07:09.662Z,11.70
2023-03-18T07:09:36.997Z,11.70
2023-03-18T07:12:04.204Z,11.80
2023-03-18T07:14:31.029Z,11.90
2023-03-18T07:16:58.211Z,11.90
2023-03-18T07:19:25.230Z,12.20
2023-03-18T07:21:52.119Z,12.10
2023-03-18T07:24:21.632Z,12.00
2023-03-18T07:26:50.240Z,12.00
2023-03-18T07:29:17.622Z,12.00
2023-03-18T07:31:44.789Z,12.10
2023-03-18T07:34:13.015Z,12.20
2023-03-18T07:36:39.853Z,12.30
2023-03-18T07:39:07.966Z,12.40
2023-03-18T07:41:37.632Z,12.30
2023-03-18T07:44:06.831Z,12.40
2023-03-18T07:46:33.939Z,12.40
2023-03-18T07:49:01.173Z,12.60
2023-03-18T07:51:28.118Z,12.60
2023-03-18T07:53:55.277Z,12.70
2023-03-18T07:56:22.199Z,12.80
2023-03-18T07:58:49.083Z,12.90
2023-03-18T08:01:18.547Z,12.70
2023-03-18T08:03:46.811Z,12.90
2023-03-18T08:06:15.441Z,13.00
2023-03-18T08:08:42.839Z,13.20
2023-03-18T08:11:09.903Z,13.30
2023-03-18T08:13:38.772Z,13.20
2023-03-18T08:16:06.237Z,13.20
2023-03-18T08:18:33.281Z,13.40
2023-03-18T08:21:00.503Z,13.90
2023-03-18T08:23:27.913Z,14.20
2023-03-18T08:25:54.799Z,14.10
2023-03-18T08:28:21.629Z,14.30
2023-03-18T08:30:48.870Z,14.00
2023-03-18T08:33:16.055Z,14.00
2023-03-18T08:35:42.963Z,14.20
2023-03-18T08:38:10.112Z,14.50
2023-03-18T08:40:36.952Z,14.90
2023-03-18T08:43:03.816Z,14.80
2023-03-18T08:45:30.925Z,14.90
2023-03-18T08:47:57.941Z,15.10
2023-03-18T08:50:28.596Z,15.30
2023-03-18T08:52:57.905Z,15.70
2023-03-18T08:55:31.679Z,15.50
2023-03-18T08:57:58.702Z,16.00
2023-03-18T09:00:27.413Z,16.50
2023-03-18T09:02:54.344Z,16.70
2023-03-18T09:05:21.605Z,16.20
2023-03-18T09:07:48.770Z,16.00
2023-03-18T09:10:17.724Z,16.30
2023-03-18T09:12:46.045Z,16.00
2023-03-18T09:15:14.963Z,15.80
2023-03-18T09:17:59.979Z,15.60
2023-03-18T09:20:29.784Z,15.40
2023-03-18T09:22:56.697Z,15.10
2023-03-18T09:25:24.644Z,15.30
2023-03-18T09:27:51.924Z,15.30
2023-03-18T09:30:19.194Z,15.40
2023-03-18T09:32:46.289Z,15.20
2023-03-18T09:35:14.199Z,15.50
2023-03-18T09:37:41.052Z,15.50
2023-03-18T09:40:08.727Z,15.60
2023-03-18T09:43:13.227Z,15.90
2023-03-18T09:45:44.753Z,16.00
2023-03-18T09:48:56.809Z,15.90
2023-03-18T09:51:33.238Z,15.70
2023-03-18T09:54:12.577Z,15.50
2023-03-18T09:56:40.226Z,16.00
2023-03-18T09:59:37.405Z,16.10
2023-03-18T10:02:15.677Z,16.20
2023-03-18T10:04:52.352Z,16.20
2023-03-18T10:07:23.818Z,16.60
2023-03-18T10:10:02.608Z,16.60
2023-03-18T10:12:38.002Z,16.60
2023-03-18T10:15:11.031Z,16.20
2023-03-18T10:18:06.456Z,15.90
2023-03-18T10:20:36.247Z,16.40
2023-03-18T10:23:26.911Z,16.40
2023-03-18T10:25:58.053Z,16.50
2023-03-18T10:28:54.482Z,16.50
2023-03-18T10:31:43.182Z,16.50
2023-03-18T10:34:11.916Z,16.00
2023-03-18T10:36:55.610Z,16.00
2023-03-18T10:39:25.936Z,16.50
2023-03-18T10:41:55.421Z,16.90
2023-03-18T10:44:30.317Z,17.00
2023-03-18T10:47:02.706Z,17.00
2023-03-18T10:49:38.727Z,17.10
2023-03-18T10:52:38.901Z,16.60
2023-03-18T10:55:16.326Z,16.60
2023-03-18T10:57:43.164Z,16.60
2023-03-18T11:00:27.125Z,16.30
2023-03-18T11:02:54.891Z,16.20
2023-03-18T11:05:33.827Z,16.00
2023-03-18T11:08:07.830Z,15.80
2023-03-18T11:10:39.726Z,15.90
2023-03-18T11:13:06.608Z,15.90
2023-03-18T11:15:39.847Z,15.90
2023-03-18T11:18:17.681Z,15.90
2023-03-18T11:20:47.817Z,15.80
2023-03-18T11:24:10.962Z,15.60
2023-03-18T11:27:26.052Z,15.70
2023-03-18T11:30:03.105Z,15.90
2023-03-18T11:32:34.555Z,15.90
2023-03-18T11:35:04.048Z,15.80
2023-03-18T11:37:32.961Z,15.50
2023-03-18T11:40:12.200Z,15.40
2023-03-18T11:42:40.605Z,15.40
2023-03-18T11:45:26.282Z,15.30
2023-03-18T11:47:54.298Z,15.10
2023-03-18T11:50:27.707Z,15.10
2023-03-18T11:53:32.779Z,15.00
2023-03-18T11:56:20.819Z,15.00
2023-03-18T11:59:05.739Z,15.00
2023-03-18T12:01:47.972Z,15.20
2023-03-18T12:04:21.962Z,15.00
2023-03-18T12:06:57.678Z,15.10
2023-03-18T12:09:34.931Z,15.20
2023-03-18T12:12:01.981Z,15.10
2023-03-18T12:14:35.369Z,15.00
2023-03-18T12:17:08.276Z,15.00
2023-03-18T12:19:53.159Z,14.90
2023-03-18T12:22:22.707Z,15.00
2023-03-18T12:25:31.583Z,15.00
2023-03-18T12:28:43.021Z,14.80
2023-03-18T12:31:15.589Z,14.90
2023-03-18T12:33:48.883Z,14.90
2023-03-18T12:37:03.244Z,14.90
2023-03-18T12:39:41.501Z,14.80
2023-03-18T12:42:12.187Z,14.70
2023-03-18T12:45:02.215Z,14.60
2023-03-18T12:47:43.113Z,14.60
2023-03-18T12:50:20.203Z,14.40
2023-03-18T12:52:55.970Z,14.40
2023-03-18T12:55:33.937Z,14.30
2023-03-18T12:58:06.599Z,14.40
2023-03-18T13:00:47.158Z,14.40
2023-03-18T13:03:26.713Z,14.40
2023-03-18T13:06:00.727Z,14.50
2023-03-18T13:08:48.825Z,14.50
2023-03-18T13:11:37.418Z,14.40
2023-03-18T13:14:25.838Z,14.50
2023-03-18T13:16:53.933Z,14.40
2023-03-18T13:19:20.816Z,14.70
2023-03-18T13:21:54.014Z,14.80
2023-03-18T13:24:45.672Z,14.60
2023-03-18T13:27:32.219Z,14.60
2023-03-18T13:30:07.819Z,14.70
2023-03-18T13:32:49.826Z,14.60
2023-03-18T13:35:50.725Z,14.70
2023-03-18T13:38:29.701Z,15.00
2023-03-18T13:40:59.432Z,15.10
2023-03-18T13:43:28.111Z,15.00
2023-03-18T13:45:57.462Z,14.90
2023-03-18T13:48:33.753Z,14.80
2023-03-18T13:51:34.365Z,14.90
2023-03-18T13:54:07.314Z,14.80
2023-03-18T13:56:46.733Z,14.80
2023-03-18T13:59:35.235Z,14.90
2023-03-18T14:02:39.983Z,15.10
2023-03-18T14:05:34.935Z,15.00
2023-03-18T14:08:26.355Z,15.20
2023-03-18T14:11:26.577Z,15.30
2023-03-18T14:14:02.195Z,15.30
2023-03-18T14:16:35.962Z,15.60
2023-03-18T14:19:06.148Z,15.80
2023-03-18T14:21:34.376Z,16.10
2023-03-18T14:24:25.708Z,16.10
2023-03-18T14:27:04.197Z,16.10
2023-03-18T14:29:42.482Z,16.30
2023-03-18T14:32:33.949Z,16.40
2023-03-18T14:35:13.645Z,16.40
2023-03-18T14:38:00.882Z,16.20
2023-03-18T14:40:28.224Z,16.00
2023-03-18T14:43:01.302Z,16.00
2023-03-18T14:45:33.645Z,15.80
2023-03-18T14:48:05.636Z,15.90
2023-03-18T14:50:47.842Z,15.90
2023-03-18T14:53:33.019Z,15.60
2023-03-18T14:56:01.630Z,15.60
2023-03-18T14:58:28.737Z,15.40
2023-03-18T15:01:07.255Z,15.30
2023-03-18T15:03:34.448Z,15.30
2023-03-18T15:06:07.321Z,15.50
2023-03-18T15:08:47.861Z,15.80
2023-03-18T15:11:18.905Z,15.90
2023-03-18T15:13:46.433Z,16.10
2023-03-18T15:16:18.314Z,16.20
2023-03-18T15:18:45.701Z,16.30
2023-03-18T15:21:23.934Z,16.10
2023-03-18T15:23:53.454Z,16.30
2023-03-18T15:26:29.260Z,16.10
2023-03-18T15:29:00.309Z,16.10
2023-03-18T15:31:33.773Z,16.00
2023-03-18T15:34:18.808Z,16.10
2023-03-18T15:37:22.307Z,16.20
2023-03-18T15:39:49.741Z,16.20
2023-03-18T15:42:19.244Z,16.10
2023-03-18T15:44:55.337Z,16.10
2023-03-18T15:47:27.971Z,16.10
2023-03-18T15:50:09.503Z,16.00
2023-03-18T15:52:41.891Z,16.00
2023-03-18T15:55:51.588Z,16.00
2023-03-18T15:58:35.652Z,15.90
2023-03-18T16:01:02.837Z,16.00
2023-03-18T16:03:33.753Z,16.00
2023-03-18T16:06:05.402Z,16.00
2023-03-18T16:08:32.308Z,16.00
2023-03-18T16:11:02.317Z,16.00
2023-03-18T16:13:33.013Z,15.90
2023-03-18T16:16:00.481Z,15.90
2023-03-18T16:18:27.390Z,15.90
2023-03-18T16:20:54.266Z,16.00
2023-03-18T16:23:21.927Z,16.10
2023-03-18T16:25:51.821Z,15.90
2023-03-18T16:28:22.986Z,15.90
2023-03-18T16:30:52.452Z,15.80
2023-03-18T16:33:20.877Z,15.70
2023-03-18T16:35:58.994Z,15.70
2023-03-18T16:38:27.073Z,15.70
2023-03-18T16:40:55.389Z,15.70
2023-03-18T16:43:24.479Z,15.70
2023-03-18T16:45:51.782Z,15.60
2023-03-18T16:48:21.919Z,15.60
2023-03-18T16:50:51.030Z,15.50
2023-03-18T16:53:22.488Z,15.60
2023-03-18T16:55:52.767Z,15.50
2023-03-18T16:58:30.089Z,15.50
2023-03-18T17:00:57.997Z,15.50
2023-03-18T17:03:24.940Z,15.50
2023-03-18T17:05:52.012Z,15.40
2023-03-18T17:08:20.760Z,15.30
2023-03-18T17:10:50.342Z,15.30
2023-03-18T17:13:43.386Z,15.30
2023-03-18T17:16:18.588Z,15.50
2023-03-18T17:18:45.414Z,15.40
2023-03-18T17:21:12.543Z,15.30
2023-03-18T17:23:40.212Z,15.40
2023-03-18T17:26:11.619Z,15.30
2023-03-18T17:28:43.669Z,15.30
2023-03-18T17:31:11.574Z,15.40
2023-03-18T17:33:39.278Z,15.40
2023-03-18T17:36:07.443Z,15.40
2023-03-18T17:38:37.294Z,15.30
2023-03-18T17:41:12.559Z,15.40
2023-03-18T17:43:40.209Z,15.10
2023-03-18T17:46:07.161Z,15.10
2023-03-18T17:48:36.408Z,15.00
2023-03-18T17:51:17.779Z,15.00
2023-03-18T17:53:50.281Z,15.10
2023-03-18T17:56:19.319Z,15.10
2023-03-18T17:58:51.548Z,15.20
2023-03-18T18:01:22.478Z,15.00
2023-03-18T18:03:49.554Z,14.80
2023-03-18T18:06:19.539Z,14.90
2023-03-18T18:08:48.349Z,14.90
2023-03-18T18:11:28.581Z,14.90
2023-03-18T18:14:00.906Z,15.00
2023-03-18T18:16:27.925Z,15.00
2023-03-18T18:18:54.829Z,15.00
2023-03-18T18:21:24.462Z,15.00
2023-03-18T18:23:51.338Z,15.00
2023-03-18T18:26:21.290Z,14.90
2023-03-18T18:28:50.464Z,14.80
2023-03-18T18:31:19.518Z,14.90
2023-03-18T18:33:49.733Z,15.00
2023-03-18T18:36:18.049Z,15.00
2023-03-18T18:38:45.083Z,15.00
2023-03-18T18:41:11.904Z,14.90
2023-03-18T18:43:38.825Z,14.90
2023-03-18T18:46:14.854Z,15.00
2023-03-18T18:48:44.153Z,14.90
2023-03-18T18:51:18.324Z,14.90
2023-03-18T18:53:45.971Z,15.00
2023-03-18T18:56:18.679Z,14.90
2023-03-18T18:58:46.391Z,14.80
2023-03-18T19:01:14.958Z,14.90
2023-03-18T19:03:42.263Z,14.70
2023-03-18T19:06:23.963Z,14.80
2023-03-18T19:08:51.075Z,14.80
2023-03-18T19:11:18.217Z,14.80
2023-03-18T19:13:45.150Z,14.70
2023-03-18T19:16:48.228Z,14.60
2023-03-18T19:19:17.790Z,14.50
2023-03-18T19:21:44.898Z,14.40
2023-03-18T19:24:26.876Z,14.20
2023-03-18T19:27:02.602Z,14.10
2023-03-18T19:29:30.119Z,13.80
2023-03-18T19:31:57.063Z,13.50
2023-03-18T19:34:24.551Z,13.40
2023-03-18T19:36:54.786Z,13.30
2023-03-18T19:39:22.579Z,13.20
2023-03-18T19:41:51.312Z,13.20
2023-03-18T19:44:21.120Z,13.10
2023-03-18T19:46:49.156Z,13.10
2023-03-18T19:49:24.143Z,13.00
2023-03-18T19:51:51.679Z,12.90
2023-03-18T19:54:29.102Z,12.60
2023-03-18T19:57:00.312Z,12.40
2023-03-18T19:59:38.034Z,12.50
2023-03-18T20:02:27.243Z,12.40
2023-03-18T20:04:57.529Z,12.30
2023-03-18T20:07:26.897Z,12.20
2023-03-18T20:09:54.300Z,12.20
2023-03-18T20:12:42.141Z,12.30
2023-03-18T20:15:33.046Z,12.30
2023-03-18T20:18:00.936Z,12.40
2023-03-18T20:20:31.217Z,12.50
2023-03-18T20:23:01.898Z,12.50
2023-03-18T20:25:34.271Z,12.30
2023-03-18T20:28:02.159Z,12.30
2023-03-18T20:30:32.708Z,12.30
2023-03-18T20:33:00.611Z,12.10
2023-03-18T20:35:30.031Z,12.10
2023-03-18T20:37:58.308Z,12.10
2023-03-18T20:40:29.855Z,12.10
2023-03-18T20:42:57.280Z,11.90
2023-03-18T20:45:25.029Z,12.10
2023-03-18T20:47:51.929Z,12.10
2023-03-18T20:50:28.593Z,12.00
2023-03-18T20:52:55.511Z,12.10
2023-03-18T20:55:29.283Z,12.00
2023-03-18T20:57:56.554Z,12.00
2023-03-18T21:00:26.978Z,12.10
2023-03-18T21:02:56.551Z,12.00
2023-03-18T21:05:24.842Z,12.10
2023-03-18T21:07:51.782Z,12.10
2023-03-18T21:10:21.789Z,12.10
2023-03-18T21:12:49.156Z,12.10
2023-03-18T21:15:28.281Z,12.20
2023-03-18T21:17:55.658Z,12.20
2023-03-18T21:20:27.070Z,12.20
2023-03-18T21:22:54.541Z,12.30
2023-03-18T21:25:24.745Z,12.30
2023-03-18T21:27:52.559Z,12.10
2023-03-18T21:30:22.112Z,12.00
2023-03-18T21:32:50.979Z,12.00
2023-03-18T21:35:23.858Z,12.10
2023-03-18T21:37:51.762Z,12.10
2023-03-18T21:40:23.752Z,12.20
2023-03-18T21:42:51.552Z,12.20
2023-03-18T21:45:21.678Z,12.10
2023-03-18T21:47:48.550Z,12.20
2023-03-18T21:50:26.303Z,12.10
2023-03-18T21:52:54.708Z,12.10
2023-03-18T21:55:22.399Z,12.20
2023-03-18T21:57:49.633Z,12.20
2023-03-18T22:00:20.100Z,12.10
2023-03-18T22:02:47.727Z,12.10
2023-03-18T22:05:18.219Z,12.10
2023-03-18T22:07:46.058Z,12.20
2023-03-18T22:10:16.509Z,12.10
2023-03-18T22:12:44.040Z,12.10
2023-03-18T22:15:29.136Z,12.10
2023-03-18T22:17:56.584Z,12.00
2023-03-18T22:20:23.320Z,12.00
2023-03-18T22:22:50.412Z,12.00
2023-03-18T22:25:32.847Z,12.00
2023-03-18T22:28:00.536Z,12.00
2023-03-18T22:30:29.433Z,12.00
2023-03-18T22:32:57.232Z,12.00
2023-03-18T22:35:26.885Z,11.90
2023-03-18T22:37:54.339Z,11.90
2023-03-18T22:40:26.919Z,11.80
2023-03-18T22:42:58.864Z,11.60
2023-03-18T22:45:28.886Z,11.60
2023-03-18T22:47:58.604Z,11.50
2023-03-18T22:50:28.101Z,11.50
2023-03-18T22:53:03.548Z,11.50
2023-03-18T22:55:38.829Z,11.40
2023-03-18T22:58:06.618Z,11.40
2023-03-18T23:00:37.424Z,11.40
2023-03-18T23:03:12.154Z,11.40
2023-03-18T23:05:39.033Z,11.40
2023-03-18T23:08:06.624Z,11.40
2023-03-18T23:10:33.673Z,11.40
2023-03-18T23:13:00.660Z,11.40
2023-03-18T23:15:27.449Z,11.20
2023-03-18T23:17:54.271Z,11.20
2023-03-18T23:20:21.097Z,11.30
2023-03-18T23:22:47.960Z,11.20
2023-03-18T23:25:17.824Z,11.20
2023-03-18T23:27:45.526Z,11.30
2023-03-18T23:30:13.372Z,11.30
2023-03-18T23:32:41.586Z,11.30
2023-03-18T23:35:09.185Z,11.30
2023-03-18T23:37:36.445Z,11.30
2023-03-18T23:40:05.287Z,11.30
2023-03-18T23:42:32.383Z,11.40
2023-03-18T23:44:59.253Z,11.40
2023-03-18T23:47:26.128Z,11.40
2023-03-18T23:49:53.035Z,11.30
2023-03-18T23:52:19.928Z,11.30
2023-03-18T23:54:46.835Z,11.20
2023-03-18T23:57:13.657Z,11.20
2023-03-18T23:59:40.664Z,11.20
